createdAt,value
2019-05-02T00:00:12.895Z,8.74
2019-05-02T00:04:20.112Z,8.74
2019-05-02T00:08:22.665Z,8.83
2019-05-02T00:12:26.311Z,8.66
2019-05-02T00:16:30.549Z,8.82
2019-05-02T00:20:34.191Z,8.63
2019-05-02T00:24:39.176Z,8.64
2019-05-02T00:28:48.095Z,8.51
2019-05-02T00:32:48.293Z,8.47
2019-05-02T00:36:51.779Z,8.43
2019-05-02T00:40:57.437Z,8.46
2019-05-02T00:45:00.906Z,8.56
2019-05-02T00:49:04.437Z,8.53
2019-05-02T00:53:12.198Z,8.38
2019-05-02T00:57:14.962Z,8.43
2019-05-02T01:01:31.009Z,8.33
2019-05-02T01:05:38.470Z,8.38
2019-05-02T01:09:42.095Z,8.36
2019-05-02T01:13:45.665Z,8.31
2019-05-02T01:17:49.130Z,8.41
2019-05-02T01:21:52.598Z,8.48
2019-05-02T01:25:56.091Z,8.48
2019-05-02T01:30:10.074Z,8.51
2019-05-02T01:34:19.249Z,8.42
2019-05-02T01:38:26.247Z,8.49
2019-05-02T01:42:39.546Z,8.54
2019-05-02T01:46:35.468Z,8.62
2019-05-02T01:50:39.043Z,8.64
2019-05-02T01:54:45.677Z,8.64
2019-05-02T01:58:47.752Z,8.74
2019-05-02T02:02:51.278Z,8.69
2019-05-02T02:06:54.761Z,8.70
2019-05-02T02:10:58.427Z,8.73
2019-05-02T02:15:01.910Z,8.73
2019-05-02T02:19:16.091Z,8.73
2019-05-02T02:23:23.653Z,8.75
2019-05-02T02:27:27.150Z,8.70
2019-05-02T02:31:30.777Z,8.75
2019-05-02T02:35:34.553Z,8.67
2019-05-02T02:39:38.091Z,8.64
2019-05-02T02:43:42.029Z,8.69
2019-05-02T02:47:45.859Z,8.73
2019-05-02T02:51:49.680Z,8.73
2019-05-02T02:56:01.054Z,8.73
2019-05-02T03:00:06.297Z,8.72
2019-05-02T03:04:09.091Z,8.57
2019-05-02T03:08:10.070Z,8.54
2019-05-02T03:12:21.139Z,8.79
2019-05-02T03:16:25.527Z,8.79
2019-05-02T03:20:39.985Z,8.68
2019-05-02T03:24:36.635Z,8.69
2019-05-02T03:28:39.784Z,8.70
2019-05-02T03:33:03.011Z,8.68
2019-05-02T03:36:48.472Z,8.67
2019-05-02T03:40:52.028Z,8.78
2019-05-02T03:45:00.222Z,8.79
2019-05-02T03:49:07.178Z,8.84
2019-05-02T03:53:06.547Z,8.90
2019-05-02T03:57:10.303Z,8.90
2019-05-02T04:01:14.155Z,8.92
2019-05-02T04:05:18.275Z,8.99
2019-05-02T04:09:32.023Z,8.99
2019-05-02T04:13:36.201Z,9.10
2019-05-02T04:17:40.056Z,9.11
2019-05-02T04:21:43.766Z,9.13
2019-05-02T04:25:48.566Z,9.15
2019-05-02T04:29:52.045Z,9.31
2019-05-02T04:33:55.866Z,9.28
2019-05-02T04:38:02.723Z,9.22
2019-05-02T04:42:13.186Z,9.32
2019-05-02T04:46:18.044Z,9.37
2019-05-02T04:50:18.559Z,9.33
2019-05-02T04:54:25.650Z,9.33
2019-05-02T04:58:29.672Z,9.43
2019-05-02T05:02:36.646Z,9.43
2019-05-02T05:06:38.071Z,9.52
2019-05-02T05:10:44.989Z,9.57
2019-05-02T05:14:47.534Z,9.63
2019-05-02T05:18:53.086Z,9.54
2019-05-02T05:22:58.113Z,9.74
2019-05-02T05:27:01.707Z,9.68
2019-05-02T05:31:07.509Z,9.57
2019-05-02T05:35:12.873Z,9.48
2019-05-02T05:39:17.585Z,9.56
2019-05-02T05:43:21.335Z,9.57
2019-05-02T05:47:24.826Z,9.60
2019-05-02T05:51:28.318Z,9.74
2019-05-02T05:55:32.204Z,9.76
2019-05-02T05:59:38.013Z,9.61
2019-05-02T06:03:44.863Z,9.63
2019-05-02T06:07:47.481Z,9.69
2019-05-02T06:11:55.415Z,9.81
2019-05-02T06:16:02.768Z,9.65
2019-05-02T06:20:01.803Z,9.88
2019-05-02T06:24:05.692Z,9.80
2019-05-02T06:28:09.329Z,10.06
2019-05-02T06:32:14.086Z,9.94
2019-05-02T06:36:18.382Z,10.15
2019-05-02T06:40:22.132Z,10.22
2019-05-02T06:44:25.637Z,10.26
2019-05-02T06:48:29.522Z,10.20
2019-05-02T06:52:34.624Z,10.20
2019-05-02T06:56:38.283Z,10.42
2019-05-02T07:00:56.792Z,10.58
2019-05-02T07:04:47.387Z,10.63
2019-05-02T07:08:50.969Z,10.66
2019-05-02T07:13:09.818Z,10.52
2019-05-02T07:17:05.838Z,10.49
2019-05-02T07:21:12.164Z,11.12
2019-05-02T07:25:18.038Z,11.33
2019-05-02T07:29:23.004Z,11.44
2019-05-02T07:33:26.602Z,11.35
2019-05-02T07:37:30.083Z,11.35
2019-05-02T07:41:33.569Z,11.48
2019-05-02T07:45:40.223Z,11.36
2019-05-02T07:49:42.687Z,11.55
2019-05-02T07:53:48.527Z,11.65
2019-05-02T07:57:52.050Z,11.60
2019-05-02T08:01:55.877Z,11.65
2019-05-02T08:06:00.041Z,11.75
2019-05-02T08:10:04.911Z,11.71
2019-05-02T08:14:08.465Z,11.68
2019-05-02T08:18:12.581Z,11.26
2019-05-02T08:22:16.179Z,11.42
2019-05-02T08:26:21.588Z,11.20
2019-05-02T08:30:26.507Z,10.84
2019-05-02T08:34:31.648Z,10.89
2019-05-02T08:38:35.466Z,11.15
2019-05-02T08:42:39.287Z,11.00
2019-05-02T08:46:46.132Z,11.09
2019-05-02T08:50:48.030Z,11.24
2019-05-02T08:54:51.537Z,11.29
2019-05-02T08:58:55.376Z,11.29
2019-05-02T09:03:02.536Z,11.41
2019-05-02T09:07:04.692Z,11.28
2019-05-02T09:11:08.150Z,11.04
2019-05-02T09:15:12.390Z,11.01
2019-05-02T09:19:21.319Z,11.00
2019-05-02T09:23:22.829Z,11.06
2019-05-02T09:27:26.824Z,10.99
2019-05-02T09:31:31.984Z,10.94
2019-05-02T09:35:35.667Z,11.27
2019-05-02T09:39:39.164Z,11.84
2019-05-02T09:43:42.711Z,12.25
2019-05-02T09:47:56.286Z,12.31
2019-05-02T09:51:59.296Z,12.49
2019-05-02T09:55:58.071Z,12.11
2019-05-02T10:00:02.206Z,11.68
2019-05-02T10:04:06.217Z,11.64
2019-05-02T10:08:13.466Z,11.45
2019-05-02T10:12:15.226Z,11.23
2019-05-02T10:16:25.616Z,11.28
2019-05-02T10:20:31.882Z,11.50
2019-05-02T10:24:29.611Z,11.80
2019-05-02T10:28:33.427Z,12.43
2019-05-02T10:32:36.920Z,12.85
2019-05-02T10:36:44.755Z,12.60
2019-05-02T10:40:48.494Z,12.22
2019-05-02T10:44:52.144Z,12.35
2019-05-02T10:49:01.970Z,11.73
2019-05-02T10:53:11.974Z,11.94
2019-05-02T10:57:12.606Z,12.82
2019-05-02T11:01:18.107Z,12.85
2019-05-02T11:05:26.457Z,13.34
2019-05-02T11:09:29.326Z,13.57
2019-05-02T11:13:53.348Z,14.24
2019-05-02T11:17:55.408Z,14.51
2019-05-02T11:21:59.306Z,15.20
2019-05-02T11:26:02.787Z,14.51
2019-05-02T11:30:09.180Z,14.42
2019-05-02T11:34:12.807Z,15.33
2019-05-02T11:38:43.549Z,15.13
2019-05-02T11:42:23.205Z,15.02
2019-05-02T11:46:27.198Z,14.82
2019-05-02T11:50:31.977Z,14.75
2019-05-02T11:54:39.180Z,14.33
2019-05-02T11:58:48.164Z,15.02
2019-05-02T12:02:56.271Z,15.04
2019-05-02T12:07:00.992Z,14.80
2019-05-02T12:11:03.864Z,14.51
2019-05-02T12:15:07.997Z,14.48
2019-05-02T12:19:14.725Z,14.86
2019-05-02T12:23:17.328Z,15.15
2019-05-02T12:27:22.067Z,15.23
2019-05-02T12:31:29.330Z,15.28
2019-05-02T12:35:32.818Z,14.85
2019-05-02T12:39:36.762Z,14.85
2019-05-02T12:43:41.615Z,14.71
2019-05-02T12:47:45.201Z,15.00
2019-05-02T12:51:48.933Z,15.47
2019-05-02T12:55:52.825Z,15.96
2019-05-02T12:59:56.377Z,16.16
2019-05-02T13:04:02.769Z,15.25
2019-05-02T13:08:06.427Z,14.87
2019-05-02T13:12:20.323Z,14.44
2019-05-02T13:16:24.075Z,15.34
2019-05-02T13:20:29.408Z,16.54
2019-05-02T13:24:34.676Z,16.65
2019-05-02T13:28:38.185Z,16.95
2019-05-02T13:32:43.445Z,16.67
2019-05-02T13:36:51.735Z,16.62
2019-05-02T13:40:55.272Z,16.61
2019-05-02T13:49:18.249Z,15.87
2019-05-02T13:53:22.659Z,15.13
2019-05-02T13:57:26.283Z,14.52
2019-05-02T14:01:31.567Z,14.31
2019-05-02T14:05:37.193Z,14.48
2019-05-02T14:09:44.041Z,14.75
2019-05-02T14:13:48.005Z,14.41
2019-05-02T14:17:52.473Z,14.25
2019-05-02T14:21:56.143Z,14.01
2019-05-02T14:25:59.628Z,13.91
2019-05-02T14:30:04.127Z,14.39
2019-05-02T14:34:24.598Z,14.49
2019-05-02T14:38:28.082Z,14.39
2019-05-02T14:42:32.274Z,14.09
2019-05-02T14:46:39.408Z,13.93
2019-05-02T14:50:45.547Z,13.68
2019-05-02T14:54:48.078Z,13.66
2019-05-02T14:58:52.798Z,13.62
2019-05-02T15:02:56.520Z,13.70
2019-05-02T15:07:02.040Z,13.66
2019-05-02T15:11:06.770Z,13.68
2019-05-02T15:15:12.238Z,13.83
2019-05-02T15:19:16.141Z,13.82
2019-05-02T15:23:20.074Z,13.85
2019-05-02T15:27:23.582Z,13.82
2019-05-02T15:31:31.662Z,13.91
2019-05-02T15:35:36.013Z,13.57
2019-05-02T15:43:49.035Z,13.18
2019-05-02T15:47:52.463Z,13.12
2019-05-02T15:51:55.727Z,13.21
2019-05-02T15:55:59.532Z,13.55
2019-05-02T16:00:05.651Z,13.84
2019-05-02T16:04:12.727Z,13.70
2019-05-02T16:08:16.441Z,13.70
2019-05-02T16:12:19.976Z,13.49
2019-05-02T16:16:23.453Z,13.50
2019-05-02T16:20:34.620Z,13.35
2019-05-02T16:24:38.128Z,13.20
2019-05-02T16:28:45.462Z,13.40
2019-05-02T16:32:52.260Z,13.43
2019-05-02T16:37:16.534Z,13.73
2019-05-02T16:41:18.071Z,13.44
2019-05-02T16:45:22.582Z,13.11
2019-05-02T16:49:26.093Z,13.11
2019-05-02T16:53:31.126Z,13.02
2019-05-02T16:57:35.279Z,13.04
2019-05-02T17:01:39.135Z,13.14
2019-05-02T17:05:44.114Z,13.31
2019-05-02T17:10:02.814Z,13.28
2019-05-02T17:14:11.595Z,12.83
2019-05-02T17:18:13.313Z,12.49
2019-05-02T17:22:21.952Z,11.62
2019-05-02T17:26:23.068Z,11.10
2019-05-02T17:30:30.894Z,10.94
2019-05-02T17:34:34.813Z,11.00
2019-05-02T17:38:37.425Z,11.08
2019-05-02T17:42:44.541Z,11.34
2019-05-02T17:46:50.733Z,11.42
2019-05-02T17:50:59.428Z,11.45
2019-05-02T17:55:03.974Z,11.44
2019-05-02T17:59:07.435Z,11.26
2019-05-02T18:03:12.419Z,11.04
2019-05-02T18:07:18.894Z,11.12
2019-05-02T18:11:22.691Z,11.01
2019-05-02T18:15:29.977Z,10.99
2019-05-02T18:19:31.651Z,10.73
2019-05-02T18:23:35.656Z,10.51
2019-05-02T18:27:39.201Z,10.34
2019-05-02T18:31:47.299Z,10.23
2019-05-02T18:35:52.502Z,10.18
2019-05-02T18:39:56.061Z,10.16
2019-05-02T18:44:00.056Z,10.16
2019-05-02T18:48:06.697Z,9.98
2019-05-02T18:52:09.344Z,9.83
2019-05-02T18:56:13.036Z,9.77
2019-05-02T19:00:17.179Z,9.64
2019-05-02T19:04:22.130Z,9.64
2019-05-02T19:08:31.340Z,9.56
2019-05-02T19:12:32.748Z,9.34
2019-05-02T19:16:36.669Z,9.34
2019-05-02T19:20:57.550Z,9.28
2019-05-02T19:25:01.926Z,9.19
2019-05-02T19:29:12.790Z,9.13
2019-05-02T19:33:13.387Z,9.04
2019-05-02T19:37:17.061Z,8.89
2019-05-02T19:41:22.191Z,8.89
2019-05-02T19:45:26.804Z,8.96
2019-05-02T19:49:32.475Z,8.85
2019-05-02T19:53:35.861Z,8.81
2019-05-02T19:58:07.331Z,8.78
2019-05-02T20:02:11.905Z,8.80
2019-05-02T20:06:16.036Z,8.75
2019-05-02T20:10:19.865Z,8.63
2019-05-02T20:14:24.614Z,8.67
2019-05-02T20:18:28.333Z,8.76
2019-05-02T20:22:36.178Z,8.70
2019-05-02T20:30:42.194Z,8.75
2019-05-02T20:34:46.154Z,8.72
2019-05-02T20:38:50.014Z,8.70
2019-05-02T20:42:53.680Z,8.77
2019-05-02T20:46:57.469Z,8.73
2019-05-02T20:51:02.666Z,8.73
2019-05-02T20:55:07.473Z,8.63
2019-05-02T20:59:12.759Z,8.64
2019-05-02T21:03:16.352Z,8.59
2019-05-02T21:07:27.808Z,8.61
2019-05-02T21:11:32.425Z,8.62
2019-05-02T21:15:36.174Z,8.55
2019-05-02T21:19:41.683Z,8.58
2019-05-02T21:23:47.711Z,8.52
2019-05-02T21:27:52.235Z,8.53
2019-05-02T21:31:55.474Z,8.55
2019-05-02T21:35:58.954Z,8.50
2019-05-02T21:40:02.862Z,8.54
2019-05-02T21:44:06.427Z,8.50
2019-05-02T21:48:09.934Z,8.39
2019-05-02T21:52:15.041Z,8.37
2019-05-02T21:56:21.757Z,8.36
2019-05-02T22:00:38.559Z,8.36
2019-05-02T22:04:42.532Z,8.34
2019-05-02T22:08:46.112Z,8.33
2019-05-02T22:12:51.561Z,8.17
2019-05-02T22:16:54.872Z,8.16
2019-05-02T22:20:58.680Z,8.20
2019-05-02T22:25:02.366Z,8.11
2019-05-02T22:29:06.207Z,8.05
2019-05-02T22:33:11.770Z,8.02
2019-05-02T22:37:16.912Z,8.03
2019-05-02T22:41:22.113Z,8.01
2019-05-02T22:45:26.098Z,7.97
2019-05-02T22:49:31.686Z,7.94
2019-05-02T22:53:34.801Z,7.82
2019-05-02T22:57:38.390Z,7.82
2019-05-02T23:01:42.352Z,7.75
2019-05-02T23:05:46.113Z,7.64
2019-05-02T23:09:49.580Z,7.50
2019-05-02T23:13:53.158Z,7.45
2019-05-02T23:17:57.049Z,7.34
2019-05-02T23:22:02.120Z,7.31
2019-05-02T23:26:16.575Z,7.19
2019-05-02T23:30:22.633Z,7.07
2019-05-02T23:34:26.181Z,7.06
2019-05-02T23:38:32.210Z,7.10
2019-05-02T23:42:35.281Z,7.10
2019-05-02T23:46:39.047Z,7.15
2019-05-02T23:50:42.572Z,7.18
2019-05-02T23:54:52.035Z,7.15
2019-05-02T23:58:51.961Z,6.89
